Time;durP1;ratioP1;P1;durP2;ratioP2;P2;SDS_P1;SDS_P2;PMS_P1;PMS_P2;Temp;Humidity;BMP_temperature;BMP_pressure;BME280_temperature;BME280_humidity;BME280_pressure;Samples;Min_cycle;Max_cycle;Signal;HPM_P1;HPM_P2
2024/01/20 00:00:23;;;;;;;;;;;;;;;18.74;62.13;98738.19;2088058;28;19940;-64
2024/01/20 00:01:24;;;;;;;;;;;;;;;18.75;61.86;98739.88;2087408;28;19967;-63
2024/01/20 00:02:25;;;;;;;;;;;;;;;18.75;62.06;98731.81;2086928;28;20337;-64
2024/01/20 00:03:27;;;;;;;;;;;;;;;18.73;61.91;98741.91;2076698;28;20003;-64
2024/01/20 00:04:27;;;;;;;;;;;;;;;18.71;62.09;98733.22;2086798;28;19924;-64
2024/01/20 00:05:29;;;;;;;;;;;;;;;18.71;61.86;98735.88;2086633;28;20031;-63
2024/01/20 00:06:29;;;;;;;;;;;;;;;18.70;61.88;98732.38;2087379;28;19940;-63
2024/01/20 00:07:31;;;;;;;;;;;;;;;18.70;62.11;98718.94;2086809;28;20015;-63
2024/01/20 00:08:31;;;;;;;;;;;;;;;18.69;62.13;98740.63;2075577;28;19939;-63
2024/01/20 00:09:33;;;;;;;;;;;;;;;18.68;61.76;98734.44;2087050;28;20254;-64
2024/01/20 00:10:34;;;;;;;;;;;;;;;18.69;61.80;98735.25;2085622;28;19928;-63
2024/01/20 00:11:35;;;;;;;;;;;;;;;18.70;61.79;98736.94;2087233;28;20040;-63
2024/01/20 00:12:36;;;;;;;;;;;;;;;18.70;61.73;98727.00;2088505;28;19924;-63
2024/01/20 00:13:38;;;;;;;;;;;;;;;18.70;61.84;98731.56;2085242;28;21356;-64
2024/01/20 00:14:40;;;;;;;;;;;;;;;18.70;61.78;98736.94;2088384;28;19955;-63
2024/01/20 00:15:41;;;;;;;;;;;;;;;18.68;62.05;98744.34;2086987;28;19933;-64
2024/01/20 00:16:42;;;;;;;;;;;;;;;18.68;61.81;98742.50;2087176;28;19939;-63
2024/01/20 00:17:44;;;;;;;;;;;;;;;18.68;61.83;98742.50;2093345;28;19972;-64
2024/01/20 00:18:44;;;;;;;;;;;;;;;18.68;61.90;98733.59;2084654;28;19929;-63
2024/01/20 00:19:46;;;;;;;;;;;;;;;18.65;61.73;98728.66;2087306;28;20032;-63
2024/01/20 00:20:46;;;;;;;;;;;;;;;18.61;61.95;98732.75;2088984;28;20347;-64
2024/01/20 00:21:48;;;;;;;;;;;;;;;18.62;61.93;98729.06;2084262;28;20027;-63
2024/01/20 00:22:49;;;;;;;;;;;;;;;18.60;62.14;98737.28;2088140;28;19932;-64
2024/01/20 00:23:50;;;;;;;;;;;;;;;18.58;62.07;98733.97;2087243;28;19928;-64
2024/01/20 00:24:52;;;;;;;;;;;;;;;18.58;61.92;98733.97;2086603;28;20035;-66
2024/01/20 00:25:53;;;;;;;;;;;;;;;18.56;61.83;98732.53;2088377;28;19993;-64
2024/01/20 00:26:54;;;;;;;;;;;;;;;18.54;62.11;98741.63;2075834;28;19932;-64
2024/01/20 00:27:55;;;;;;;;;;;;;;;18.53;62.19;98729.22;2083875;28;19929;-63
2024/01/20 00:28:56;;;;;;;;;;;;;;;18.54;61.82;98728.19;2085093;28;19981;-64
2024/01/20 00:29:58;;;;;;;;;;;;;;;18.52;62.04;98727.53;2090369;28;19928;-63
2024/01/20 00:31:00;;;;;;;;;;;;;;;18.51;62.34;98733.13;2091686;28;19978;-64
2024/01/20 00:32:00;;;;;;;;;;;;;;;18.49;61.89;98730.63;2088587;28;19939;-64
2024/01/20 00:33:02;;;;;;;;;;;;;;;18.46;62.15;98720.28;2086783;28;19960;-63
2024/01/20 00:34:03;;;;;;;;;;;;;;;18.48;62.05;98728.16;2090501;28;19935;-64
2024/01/20 00:35:05;;;;;;;;;;;;;;;18.46;62.11;98722.16;2085673;28;19991;-63
2024/01/20 00:36:05;;;;;;;;;;;;;;;18.46;62.09;98717.63;2088084;28;19981;-64
2024/01/20 00:37:07;;;;;;;;;;;;;;;18.44;62.14;98716.16;2086124;28;20006;-64
2024/01/20 00:38:08;;;;;;;;;;;;;;;18.44;62.11;98721.53;2086129;28;19931;-64
2024/01/20 00:39:10;;;;;;;;;;;;;;;18.40;61.96;98718.41;2085198;28;20392;-64
2024/01/20 00:40:11;;;;;;;;;;;;;;;18.38;62.34;98719.66;2088079;28;20456;-64
2024/01/20 00:41:13;;;;;;;;;;;;;;;18.39;62.27;98740.13;2085440;28;19963;-64
2024/01/20 00:42:13;;;;;;;;;;;;;;;18.38;62.07;98739.25;2090485;28;19935;-64
2024/01/20 00:43:15;;;;;;;;;;;;;;;18.36;62.12;98748.53;2086850;28;19932;-63
2024/01/20 00:44:16;;;;;;;;;;;;;;;18.34;62.21;98732.66;2083243;28;19933;-64
2024/01/20 00:45:19;;;;;;;;;;;;;;;18.32;62.18;98734.69;2078091;28;19928;-64
2024/01/20 00:46:20;;;;;;;;;;;;;;;18.40;62.24;98731.03;2085159;28;20171;-63
2024/01/20 00:47:21;;;;;;;;;;;;;;;18.38;61.96;98733.91;2086351;28;20533;-62
2024/01/20 00:48:22;;;;;;;;;;;;;;;18.38;61.94;98750.00;2087189;28;19928;-63
2024/01/20 00:49:23;;;;;;;;;;;;;;;18.34;61.92;98742.56;2086524;28;19945;-63
2024/01/20 00:50:24;;;;;;;;;;;;;;;18.34;62.09;98738.03;2085704;28;20353;-63
2024/01/20 00:51:25;;;;;;;;;;;;;;;18.31;62.10;98746.47;2086848;28;20715;-63
2024/01/20 00:52:25;;;;;;;;;;;;;;;18.33;62.29;98739.06;2086782;28;19972;-63
2024/01/20 00:53:27;;;;;;;;;;;;;;;18.30;62.20;98750.16;2084615;28;20635;-63
2024/01/20 00:54:28;;;;;;;;;;;;;;;18.27;62.38;98754.06;2087125;28;20557;-63
2024/01/20 00:55:29;;;;;;;;;;;;;;;18.26;62.38;98752.44;2086286;28;20028;-63
2024/01/20 00:56:30;;;;;;;;;;;;;;;18.30;62.34;98752.84;2087345;28;19940;-63
2024/01/20 00:57:31;;;;;;;;;;;;;;;18.29;62.19;98751.22;2089334;28;19929;-63
2024/01/20 00:58:32;;;;;;;;;;;;;;;18.29;62.00;98754.72;2086077;28;20097;-63
2024/01/20 00:59:34;;;;;;;;;;;;;;;18.31;62.13;98754.53;2086697;28;20648;-63
2024/01/20 01:00:36;;;;;;;;;;;;;;;18.29;61.80;98764.63;2085160;28;19936;-62
2024/01/20 01:01:38;;;;;;;;;;;;;;;18.30;61.98;98753.72;2086383;28;19959;-63
2024/01/20 01:02:39;;;;;;;;;;;;;;;18.29;61.87;98767.31;2087680;28;19971;-63
2024/01/20 01:03:42;;;;;;;;;;;;;;;18.29;61.93;98772.69;2086479;28;21711;-64
2024/01/20 01:04:43;;;;;;;;;;;;;;;18.26;62.05;98771.22;2086323;28;20471;-63
2024/01/20 01:05:44;;;;;;;;;;;;;;;18.26;62.05;98765.84;2088979;28;19928;-63
2024/01/20 01:06:45;;;;;;;;;;;;;;;18.27;62.10;98774.72;2084205;28;19932;-63
2024/01/20 01:07:47;;;;;;;;;;;;;;;18.27;62.13;98777.41;2087626;28;20664;-63
2024/01/20 01:08:47;;;;;;;;;;;;;;;18.26;61.72;98767.72;2086402;28;19932;-63
2024/01/20 01:09:49;;;;;;;;;;;;;;;18.27;61.85;98777.41;2088070;28;19975;-64
2024/01/20 01:10:50;;;;;;;;;;;;;;;18.24;62.09;98775.97;2088612;28;19971;-64
2024/01/20 01:11:51;;;;;;;;;;;;;;;18.22;62.32;98778.03;2086377;28;19940;-64
2024/01/20 01:12:52;;;;;;;;;;;;;;;18.21;62.03;98789.78;2085826;28;20523;-64
2024/01/20 01:13:53;;;;;;;;;;;;;;;18.22;61.82;98782.56;2086160;28;20016;-64
2024/01/20 01:14:54;;;;;;;;;;;;;;;18.20;62.19;98788.13;2088375;28;19940;-64
2024/01/20 01:15:57;;;;;;;;;;;;;;;18.19;62.20;98777.56;2084937;28;20058;-64
2024/01/20 01:16:58;;;;;;;;;;;;;;;18.21;62.21;98783.59;2085418;28;19935;-64
2024/01/20 01:18:00;;;;;;;;;;;;;;;18.22;61.96;98790.59;2087623;28;20040;-64
2024/01/20 01:19:00;;;;;;;;;;;;;;;18.18;61.83;98800.91;2086331;28;19932;-64
2024/01/20 01:20:02;;;;;;;;;;;;;;;18.16;62.13;98807.50;2087619;28;19978;-63
2024/01/20 01:21:03;;;;;;;;;;;;;;;18.21;62.00;98805.06;2086496;28;20654;-64
2024/01/20 01:22:05;;;;;;;;;;;;;;;18.24;61.78;98813.53;2088256;28;20024;-64
2024/01/20 01:23:06;;;;;;;;;;;;;;;18.26;61.70;98803.44;2087474;28;19954;-64
2024/01/20 01:24:07;;;;;;;;;;;;;;;18.22;61.95;98806.72;2085854;28;20467;-64
2024/01/20 01:25:09;;;;;;;;;;;;;;;18.20;61.65;98801.56;2085748;28;19925;-63
2024/01/20 01:26:10;;;;;;;;;;;;;;;18.19;61.88;98794.53;2085958;28;20055;-63
2024/01/20 01:27:11;;;;;;;;;;;;;;;18.18;61.96;98797.41;2087439;28;19925;-63
2024/01/20 01:28:13;;;;;;;;;;;;;;;18.16;61.73;98802.97;2085150;28;20525;-64
2024/01/20 01:29:13;;;;;;;;;;;;;;;18.17;61.67;98806.50;2084333;28;19928;-63
2024/01/20 01:30:15;;;;;;;;;;;;;;;18.18;61.85;98806.28;2089037;28;19968;-63
2024/01/20 01:31:17;;;;;;;;;;;;;;;18.22;61.64;98804.03;2083416;28;19928;-63
2024/01/20 01:32:18;;;;;;;;;;;;;;;18.22;61.56;98809.41;2086843;28;19967;-63
2024/01/20 01:33:19;;;;;;;;;;;;;;;18.19;61.81;98805.28;2083901;28;19933;-64
2024/01/20 01:34:20;;;;;;;;;;;;;;;18.18;61.56;98802.78;2084395;28;19940;-63
2024/01/20 01:35:22;;;;;;;;;;;;;;;18.16;61.87;98811.00;2088097;28;19968;-62
2024/01/20 01:36:23;;;;;;;;;;;;;;;18.20;61.58;98819.53;2086734;28;19928;-63
2024/01/20 01:37:25;;;;;;;;;;;;;;;18.21;61.51;98822.00;2085461;28;19935;-64
2024/01/20 01:38:25;;;;;;;;;;;;;;;18.22;61.36;98821.00;2086868;28;20567;-63
2024/01/20 01:39:27;;;;;;;;;;;;;;;18.21;61.43;98821.16;2085372;28;20019;-62
2024/01/20 01:40:28;;;;;;;;;;;;;;;18.20;61.62;98816.84;2084924;28;19925;-64
2024/01/20 01:41:29;;;;;;;;;;;;;;;18.20;61.38;98823.03;2087193;28;19986;-64
2024/01/20 01:42:30;;;;;;;;;;;;;;;18.15;61.51;98835.38;2088792;28;19933;-62
2024/01/20 01:43:32;;;;;;;;;;;;;;;18.17;61.49;98825.28;2085952;28;19979;-63
2024/01/20 01:44:32;;;;;;;;;;;;;;;18.15;61.51;98824.66;2088331;28;20295;-64
2024/01/20 01:45:34;;;;;;;;;;;;;;;18.17;61.51;98828.78;2088045;28;19928;-63
2024/01/20 01:46:36;;;;;;;;;;;;;;;18.14;61.64;98831.06;2085221;28;19995;-63
2024/01/20 01:47:38;;;;;;;;;;;;;;;18.15;61.30;98832.69;2090567;28;19932;-64
2024/01/20 01:48:39;;;;;;;;;;;;;;;18.12;61.63;98831.22;2087206;28;19928;-64
2024/01/20 01:49:40;;;;;;;;;;;;;;;18.11;61.71;98823.34;2086061;28;19972;-64
2024/01/20 01:50:41;;;;;;;;;;;;;;;18.11;61.45;98828.72;2088427;28;19933;-64
2024/01/20 01:51:43;;;;;;;;;;;;;;;18.06;61.54;98840.91;2085815;28;20019;-63
2024/01/20 01:52:44;;;;;;;;;;;;;;;18.06;61.64;98843.59;2086813;28;19928;-63
2024/01/20 01:53:46;;;;;;;;;;;;;;;18.00;62.06;98841.69;2087172;28;20697;-63
2024/01/20 01:54:46;;;;;;;;;;;;;;;18.01;62.04;98834.47;2087307;28;19929;-62
2024/01/20 01:55:49;;;;;;;;;;;;;;;18.04;61.55;98826.00;2085353;28;20798;-64
2024/01/20 01:56:50;;;;;;;;;;;;;;;18.04;61.57;98832.19;2084286;28;19935;-64
2024/01/20 01:57:53;;;;;;;;;;;;;;;18.07;61.31;98839.88;2083017;28;19935;-63
2024/01/20 01:58:54;;;;;;;;;;;;;;;18.02;61.90;98838.78;2083437;28;20048;-63
2024/01/20 01:59:56;;;;;;;;;;;;;;;17.99;61.58;98837.31;2087800;28;20506;-63
2024/01/20 02:00:57;;;;;;;;;;;;;;;18.01;61.62;98839.81;2087119;28;19932;-63
2024/01/20 02:02:00;;;;;;;;;;;;;;;18.00;61.71;98838.16;2088118;28;19936;-64
2024/01/20 02:03:01;;;;;;;;;;;;;;;17.96;61.84;98832.34;2083956;28;20304;-64
2024/01/20 02:04:02;;;;;;;;;;;;;;;17.95;61.68;98835.25;2087350;28;20024;-64
2024/01/20 02:05:03;;;;;;;;;;;;;;;17.93;61.75;98837.28;2088158;28;20007;-64
2024/01/20 02:06:06;;;;;;;;;;;;;;;17.93;61.88;98832.72;2087055;28;20044;-63
2024/01/20 02:07:07;;;;;;;;;;;;;;;17.93;61.53;98837.28;2086161;28;20584;-63
2024/01/20 02:08:08;;;;;;;;;;;;;;;17.94;61.90;98839.78;2087695;28;19983;-64
2024/01/20 02:09:09;;;;;;;;;;;;;;;17.90;61.76;98848.41;2086209;28;19932;-65
2024/01/20 02:10:10;;;;;;;;;;;;;;;17.91;61.83;98839.31;2084651;28;19978;-64
2024/01/20 02:11:13;;;;;;;;;;;;;;;17.90;61.90;98843.88;2085292;28;20795;-64
2024/01/20 02:12:14;;;;;;;;;;;;;;;17.86;61.81;98839.91;2085489;28;19929;-63
2024/01/20 02:13:15;;;;;;;;;;;;;;;17.87;61.69;98846.94;2088502;28;20019;-64
2024/01/20 02:14:16;;;;;;;;;;;;;;;17.88;61.87;98840.53;2085436;28;20430;-64
2024/01/20 02:15:17;;;;;;;;;;;;;;;17.84;61.97;98844.63;2088583;28;20432;-63
2024/01/20 02:16:18;;;;;;;;;;;;;;;17.84;61.92;98844.63;2085039;28;20051;-63
2024/01/20 02:17:20;;;;;;;;;;;;;;;17.84;61.79;98844.63;2072624;28;19928;-64
2024/01/20 02:18:22;;;;;;;;;;;;;;;17.83;61.83;98846.50;2085670;28;19963;-63
2024/01/20 02:19:23;;;;;;;;;;;;;;;17.84;61.89;98850.84;2083513;28;19929;-64
2024/01/20 02:20:25;;;;;;;;;;;;;;;17.78;61.98;98845.38;2084828;28;20023;-64
2024/01/20 02:21:25;;;;;;;;;;;;;;;17.77;62.03;98844.53;2084875;28;19936;-62
2024/01/20 02:22:28;;;;;;;;;;;;;;;17.74;62.08;98834.19;2087054;28;20015;-62
2024/01/20 02:23:30;;;;;;;;;;;;;;;17.79;61.80;98852.44;2085703;28;19925;-64
2024/01/20 02:24:32;;;;;;;;;;;;;;;17.77;61.80;98846.38;2089382;28;19970;-64
2024/01/20 02:25:32;;;;;;;;;;;;;;;17.76;61.78;98844.75;2085979;28;19964;-67
2024/01/20 02:26:34;;;;;;;;;;;;;;;17.77;61.97;98849.06;2087274;28;19947;-63
2024/01/20 02:27:35;;;;;;;;;;;;;;;17.78;61.67;98838.19;2087405;28;19936;-62
2024/01/20 02:28:37;;;;;;;;;;;;;;;17.77;61.48;98841.84;2086506;28;19964;-64
2024/01/20 02:29:38;;;;;;;;;;;;;;;17.78;61.79;98862.34;2087329;28;19979;-62
2024/01/20 02:30:40;;;;;;;;;;;;;;;17.72;61.70;98847.00;2087776;28;19930;-62
2024/01/20 02:31:41;;;;;;;;;;;;;;;17.71;61.77;98855.22;2085380;28;20354;-65
2024/01/20 02:32:43;;;;;;;;;;;;;;;17.64;62.20;98855.16;2067500;28;20063;-63
2024/01/20 02:33:43;;;;;;;;;;;;;;;17.70;62.06;98853.56;2077890;28;19925;-64
2024/01/20 02:34:45;;;;;;;;;;;;;;;17.67;62.01;98860.16;2086662;28;20631;-63
2024/01/20 02:35:45;;;;;;;;;;;;;;;17.65;61.95;98851.44;2087242;28;19924;-63
2024/01/20 02:36:47;;;;;;;;;;;;;;;17.59;62.26;98852.22;2085551;28;20063;-64
2024/01/20 02:37:49;;;;;;;;;;;;;;;17.59;62.33;98842.31;2088596;28;19932;-63
2024/01/20 02:38:51;;;;;;;;;;;;;;;17.61;62.23;98852.88;2087319;28;20299;-63
2024/01/20 02:39:52;;;;;;;;;;;;;;;17.64;62.06;98844.44;2088181;28;20307;-64
2024/01/20 02:40:52;;;;;;;;;;;;;;;17.64;62.09;98844.44;2067878;28;19932;-63
2024/01/20 02:41:54;;;;;;;;;;;;;;;17.64;61.78;98850.63;2086098;28;19931;-64
2024/01/20 02:42:55;;;;;;;;;;;;;;;17.61;62.07;98851.00;2088129;28;20299;-63
2024/01/20 02:43:55;;;;;;;;;;;;;;;17.57;62.16;98863.13;2085066;28;20019;-64
2024/01/20 02:44:57;;;;;;;;;;;;;;;17.57;62.12;98865.00;2088238;28;20544;-64
2024/01/20 02:45:57;;;;;;;;;;;;;;;17.59;62.14;98866.47;2075405;28;19936;-63
2024/01/20 02:46:59;;;;;;;;;;;;;;;17.61;61.83;98868.97;2087208;28;20031;-64
2024/01/20 02:48:00;;;;;;;;;;;;;;;17.60;62.07;98870.78;2087786;28;19932;-62
2024/01/20 02:49:01;;;;;;;;;;;;;;;17.58;62.06;98856.75;2085097;28;20027;-63
2024/01/20 02:50:02;;;;;;;;;;;;;;;17.54;61.98;98866.19;2087386;28;19924;-64
2024/01/20 02:51:04;;;;;;;;;;;;;;;17.54;62.17;98863.50;2088332;28;20051;-63
2024/01/20 02:52:05;;;;;;;;;;;;;;;17.46;62.19;98869.00;2086289;28;20280;-63
2024/01/20 02:53:08;;;;;;;;;;;;;;;17.48;62.10;98880.38;2088366;28;20007;-64
2024/01/20 02:54:08;;;;;;;;;;;;;;;17.46;62.13;98879.72;2089535;28;20975;-63
2024/01/20 02:55:10;;;;;;;;;;;;;;;17.46;62.31;98866.31;2087133;28;19955;-64
2024/01/20 02:56:11;;;;;;;;;;;;;;;17.46;62.19;98882.41;2085610;28;19981;-64
2024/01/20 02:57:13;;;;;;;;;;;;;;;17.46;62.24;98878.91;2085280;28;20119;-63
2024/01/20 02:58:13;;;;;;;;;;;;;;;17.43;62.26;98880.09;2088101;28;19929;-63
2024/01/20 02:59:15;;;;;;;;;;;;;;;17.49;61.94;98883.88;2084895;28;19960;-64
2024/01/20 03:00:16;;;;;;;;;;;;;;;17.49;62.14;98886.56;2089519;28;19928;-63
2024/01/20 03:01:17;;;;;;;;;;;;;;;17.39;62.07;98884.19;2089446;28;20012;-64
2024/01/20 03:02:18;;;;;;;;;;;;;;;17.42;62.35;98863.19;2088371;28;20622;-63
2024/01/20 03:03:19;;;;;;;;;;;;;;;17.42;62.21;98859.69;2091101;28;19928;-64
2024/01/20 03:04:20;;;;;;;;;;;;;;;17.37;62.36;98886.22;2085539;28;19936;-64
2024/01/20 03:05:22;;;;;;;;;;;;;;;17.38;62.16;98887.88;2084820;28;20027;-63
2024/01/20 03:06:22;;;;;;;;;;;;;;;17.39;62.10;98881.53;2087018;28;20307;-63
2024/01/20 03:07:24;;;;;;;;;;;;;;;17.40;62.40;98885.84;2086707;28;20019;-64
2024/01/20 03:08:26;;;;;;;;;;;;;;;17.34;62.19;98903.53;2088168;28;19932;-63
2024/01/20 03:09:27;;;;;;;;;;;;;;;17.33;62.33;98879.59;2075235;28;20379;-63
2024/01/20 03:10:28;;;;;;;;;;;;;;;17.32;62.42;98894.84;2083812;28;19928;-62
2024/01/20 03:11:30;;;;;;;;;;;;;;;17.32;62.46;98889.47;2082614;28;19937;-63
2024/01/20 03:12:30;;;;;;;;;;;;;;;17.29;62.31;98883.66;2083637;28;19932;-63
2024/01/20 03:13:32;;;;;;;;;;;;;;;17.25;62.58;98896.63;2086336;28;19983;-64
2024/01/20 03:14:33;;;;;;;;;;;;;;;17.30;62.22;98882.63;2087966;28;20045;-62
2024/01/20 03:15:35;;;;;;;;;;;;;;;17.31;62.28;98882.47;2082478;28;20487;-63
2024/01/20 03:16:36;;;;;;;;;;;;;;;17.32;62.25;98892.16;2089020;28;19932;-63
2024/01/20 03:17:37;;;;;;;;;;;;;;;17.33;62.27;98895.69;2087061;28;20016;-63
2024/01/20 03:18:38;;;;;;;;;;;;;;;17.30;62.12;98890.69;2088976;28;19933;-64
2024/01/20 03:19:39;;;;;;;;;;;;;;;17.34;62.07;98889.28;2087670;28;19967;-64
2024/01/20 03:20:40;;;;;;;;;;;;;;;17.27;62.27;98901.78;2086982;28;20781;-64
2024/01/20 03:21:41;;;;;;;;;;;;;;;17.25;62.19;98898.47;2084029;28;20060;-64
2024/01/20 03:22:42;;;;;;;;;;;;;;;17.27;62.19;98905.28;2084770;28;19929;-63
2024/01/20 03:23:45;;;;;;;;;;;;;;;17.30;61.93;98901.41;2086252;28;19936;-64
2024/01/20 03:24:46;;;;;;;;;;;;;;;17.25;62.05;98904.66;2087527;28;19928;-63
2024/01/20 03:25:46;;;;;;;;;;;;;;;17.19;62.23;98900.88;2085392;28;20008;-63
2024/01/20 03:26:49;;;;;;;;;;;;;;;17.25;62.19;98907.34;2089105;28;19929;-63
2024/01/20 03:27:52;;;;;;;;;;;;;;;17.18;62.42;98917.97;2086740;28;20739;-63
2024/01/20 03:28:53;;;;;;;;;;;;;;;17.24;62.31;98912.88;2085571;28;20020;-64
2024/01/20 03:29:54;;;;;;;;;;;;;;;17.24;62.30;98926.28;2077466;28;20802;-63
2024/01/20 03:30:55;;;;;;;;;;;;;;;17.22;62.13;98931.00;2086776;28;20683;-63
2024/01/20 03:31:57;;;;;;;;;;;;;;;17.13;62.69;98920.41;2086691;28;20015;-63
2024/01/20 03:32:57;;;;;;;;;;;;;;;17.19;62.49;98929.56;2085364;28;19960;-64
2024/01/20 03:33:59;;;;;;;;;;;;;;;17.16;62.32;98928.06;2087413;28;19928;-63
2024/01/20 03:35:00;;;;;;;;;;;;;;;17.13;62.54;98922.22;2086735;28;19940;-63
2024/01/20 03:36:00;;;;;;;;;;;;;;;17.12;62.50;98925.94;2086323;28;20272;-63
2024/01/20 03:37:02;;;;;;;;;;;;;;;17.16;62.28;98919.16;2085531;28;19929;-63
2024/01/20 03:38:03;;;;;;;;;;;;;;;17.15;62.45;98915.66;2078521;28;19932;-63
2024/01/20 03:39:05;;;;;;;;;;;;;;;17.18;62.14;98920.66;2083426;28;20043;-63
2024/01/20 03:40:07;;;;;;;;;;;;;;;17.17;62.20;98927.03;2084687;28;19929;-62
2024/01/20 03:41:08;;;;;;;;;;;;;;;17.19;62.23;98921.50;2086337;28;19924;-63
2024/01/20 03:42:09;;;;;;;;;;;;;;;17.17;62.07;98924.34;2086451;28;20542;-63
2024/01/20 03:43:10;;;;;;;;;;;;;;;17.17;62.02;98943.13;2084678;28;19940;-62
2024/01/20 03:44:11;;;;;;;;;;;;;;;17.12;62.40;98913.38;2086648;28;20479;-63
2024/01/20 03:45:12;;;;;;;;;;;;;;;17.12;62.13;98917.91;2084091;28;19929;-63
2024/01/20 03:46:14;;;;;;;;;;;;;;;17.11;62.14;98922.44;2085709;28;20012;-63
2024/01/20 03:47:14;;;;;;;;;;;;;;;17.12;62.40;98925.94;2085645;28;19939;-63
2024/01/20 03:48:16;;;;;;;;;;;;;;;17.13;62.13;98933.81;2085915;28;20463;-63
2024/01/20 03:49:16;;;;;;;;;;;;;;;17.10;62.05;98933.31;2084305;28;19932;-62
2024/01/20 03:50:18;;;;;;;;;;;;;;;17.11;62.38;98929.66;2084446;28;19928;-62
2024/01/20 03:51:21;;;;;;;;;;;;;;;17.10;62.36;98938.69;2087936;28;19940;-63
2024/01/20 03:52:22;;;;;;;;;;;;;;;17.08;62.32;98938.88;2086814;28;19932;-63
2024/01/20 03:53:23;;;;;;;;;;;;;;;17.06;62.39;98940.91;2086061;28;19933;-64
2024/01/20 03:54:26;;;;;;;;;;;;;;;17.07;62.39;98931.84;2084688;28;20028;-64
2024/01/20 03:55:26;;;;;;;;;;;;;;;17.05;62.23;98946.44;2083656;28;19928;-62
2024/01/20 03:56:28;;;;;;;;;;;;;;;17.07;62.33;98945.25;2087948;28;20435;-63
2024/01/20 03:57:28;;;;;;;;;;;;;;;17.03;62.25;98941.28;2086074;28;19933;-63
2024/01/20 03:58:30;;;;;;;;;;;;;;;17.07;62.19;98945.25;2086834;28;20011;-64
2024/01/20 03:59:31;;;;;;;;;;;;;;;17.07;62.29;98945.25;2084163;28;19929;-64
2024/01/20 04:00:31;;;;;;;;;;;;;;;17.05;62.06;98941.94;2085319;28;20020;-62
2024/01/20 04:01:33;;;;;;;;;;;;;;;17.06;62.21;98930.19;2087961;28;19933;-63
2024/01/20 04:02:34;;;;;;;;;;;;;;;17.02;62.25;98947.69;2086345;28;20436;-63
2024/01/20 04:03:35;;;;;;;;;;;;;;;17.06;61.94;98926.69;2089070;28;20031;-63
2024/01/20 04:04:36;;;;;;;;;;;;;;;17.03;62.13;98938.63;2089023;28;19932;-63
2024/01/20 04:05:39;;;;;;;;;;;;;;;17.01;62.35;98943.31;2087972;28;19975;-63
2024/01/20 04:06:41;;;;;;;;;;;;;;;17.01;62.46;98945.16;2088135;28;20377;-63
2024/01/20 04:07:42;;;;;;;;;;;;;;;17.01;62.16;98939.81;2087961;28;19943;-62
2024/01/20 04:08:44;;;;;;;;;;;;;;;17.00;62.15;98940.84;2085764;28;19947;-64
2024/01/20 04:09:46;;;;;;;;;;;;;;;16.96;62.36;98938.50;2088298;28;19935;-63
2024/01/20 04:10:47;;;;;;;;;;;;;;;16.95;62.41;98938.69;2086180;28;19967;-64
2024/01/20 04:11:48;;;;;;;;;;;;;;;16.93;62.27;98938.06;2086592;28;20571;-64
2024/01/20 04:12:49;;;;;;;;;;;;;;;16.95;62.16;98930.66;2084475;28;20003;-64
2024/01/20 04:13:50;;;;;;;;;;;;;;;16.94;62.29;98945.09;2086498;28;19929;-64
2024/01/20 04:14:50;;;;;;;;;;;;;;;16.94;62.19;98945.09;2089102;28;20545;-63
2024/01/20 04:15:53;;;;;;;;;;;;;;;16.96;62.13;98935.00;2085155;28;19928;-64
2024/01/20 04:16:54;;;;;;;;;;;;;;;16.98;62.04;98949.06;2086058;28;20343;-63
2024/01/20 04:17:55;;;;;;;;;;;;;;;17.00;62.19;98943.53;2088359;28;19929;-64
2024/01/20 04:18:56;;;;;;;;;;;;;;;16.95;62.09;98933.34;2085922;28;19936;-63
2024/01/20 04:19:56;;;;;;;;;;;;;;;16.94;62.09;98945.09;2086679;28;20031;-63
2024/01/20 04:20:58;;;;;;;;;;;;;;;16.91;62.12;98932.03;2086841;28;20411;-64
2024/01/20 04:21:58;;;;;;;;;;;;;;;16.88;62.28;98935.94;2085786;28;20300;-63
2024/01/20 04:23:00;;;;;;;;;;;;;;;16.91;62.31;98948.13;2086188;28;20011;-64
2024/01/20 04:24:01;;;;;;;;;;;;;;;16.92;62.20;98955.16;2085409;28;19925;-64
2024/01/20 04:25:04;;;;;;;;;;;;;;;16.89;62.29;98947.50;2089337;28;19986;-64
2024/01/20 04:26:04;;;;;;;;;;;;;;;16.93;62.03;98959.47;2080254;28;20311;-63
2024/01/20 04:27:05;;;;;;;;;;;;;;;16.90;62.21;98960.69;2082889;28;20011;-65
2024/01/20 04:28:07;;;;;;;;;;;;;;;16.92;62.23;98953.31;2086725;28;19974;-63
2024/01/20 04:29:07;;;;;;;;;;;;;;;16.92;61.94;98960.50;2087293;28;19932;-63
2024/01/20 04:30:09;;;;;;;;;;;;;;;16.91;61.92;98966.88;2086769;28;20043;-62
2024/01/20 04:31:10;;;;;;;;;;;;;;;16.90;62.08;98952.66;2083942;28;20591;-63
2024/01/20 04:32:11;;;;;;;;;;;;;;;16.88;62.13;98959.19;2088589;28;20031;-63
2024/01/20 04:33:12;;;;;;;;;;;;;;;16.86;62.30;98958.56;2086984;28;19971;-63
2024/01/20 04:34:14;;;;;;;;;;;;;;;16.87;62.22;98968.25;2086759;28;20014;-63
2024/01/20 04:35:14;;;;;;;;;;;;;;;16.88;61.91;98975.28;2086821;28;19932;-63
2024/01/20 04:36:16;;;;;;;;;;;;;;;16.89;62.05;98974.28;2087088;28;20011;-63
2024/01/20 04:37:16;;;;;;;;;;;;;;;16.88;61.95;98973.47;2086303;28;19932;-63
2024/01/20 04:38:18;;;;;;;;;;;;;;;16.86;62.16;98980.84;2085527;28;20019;-63
2024/01/20 04:39:18;;;;;;;;;;;;;;;16.86;62.15;98975.47;2085525;28;19933;-63
2024/01/20 04:40:20;;;;;;;;;;;;;;;16.79;62.16;98977.22;2086444;28;20554;-64
2024/01/20 04:41:22;;;;;;;;;;;;;;;16.79;62.18;98990.59;2084783;28;20533;-63
2024/01/20 04:42:23;;;;;;;;;;;;;;;16.83;62.21;98972.34;2084925;28;19936;-64
2024/01/20 04:43:23;;;;;;;;;;;;;;;16.85;62.13;98999.75;2087880;28;20381;-63
2024/01/20 04:44:25;;;;;;;;;;;;;;;16.83;62.14;98983.88;2087681;28;20023;-64
2024/01/20 04:45:25;;;;;;;;;;;;;;;16.80;62.08;98986.94;2083088;28;19925;-64
2024/01/20 04:46:27;;;;;;;;;;;;;;;16.80;62.01;98992.28;2076501;28;20035;-62
2024/01/20 04:47:28;;;;;;;;;;;;;;;16.79;62.23;98987.94;2084301;28;19929;-63
2024/01/20 04:48:30;;;;;;;;;;;;;;;16.78;62.38;98986.28;2084884;28;20686;-63
2024/01/20 04:49:31;;;;;;;;;;;;;;;16.75;62.17;98990.13;2088031;28;19933;-62
2024/01/20 04:50:33;;;;;;;;;;;;;;;16.78;62.47;98988.13;2087853;28;19975;-63
2024/01/20 04:51:33;;;;;;;;;;;;;;;16.77;62.12;98981.94;2086518;28;19935;-63
2024/01/20 04:52:35;;;;;;;;;;;;;;;16.72;62.35;98998.53;2087349;28;20605;-63
2024/01/20 04:53:35;;;;;;;;;;;;;;;16.71;62.28;98996.84;2085883;28;19924;-62
2024/01/20 04:54:37;;;;;;;;;;;;;;;16.73;62.21;98981.44;2089836;28;19932;-63
2024/01/20 04:55:39;;;;;;;;;;;;;;;16.71;62.10;98998.69;2088880;28;19932;-63
2024/01/20 04:56:40;;;;;;;;;;;;;;;16.76;62.01;98990.94;2089356;28;19978;-64
2024/01/20 04:57:41;;;;;;;;;;;;;;;16.72;62.32;99001.19;2088122;28;19932;-63
2024/01/20 04:58:43;;;;;;;;;;;;;;;16.72;62.29;98992.34;2087757;28;20011;-63
2024/01/20 04:59:43;;;;;;;;;;;;;;;16.68;62.45;99010.59;2085863;28;20143;-64
2024/01/20 05:00:45;;;;;;;;;;;;;;;16.73;62.21;99008.22;2089684;28;20554;-63
2024/01/20 05:01:48;;;;;;;;;;;;;;;16.71;61.97;98998.69;2088260;28;20020;-63
2024/01/20 05:02:49;;;;;;;;;;;;;;;16.66;62.48;99012.66;2088412;28;20288;-63
2024/01/20 05:03:50;;;;;;;;;;;;;;;16.67;62.24;99013.47;2074752;28;19943;-64
2024/01/20 05:04:52;;;;;;;;;;;;;;;16.68;62.29;99013.28;2086210;28;20420;-64
2024/01/20 05:05:52;;;;;;;;;;;;;;;16.69;62.18;99006.94;2085262;28;19928;-63
2024/01/20 05:06:53;;;;;;;;;;;;;;;16.65;62.30;99015.50;2083697;28;20023;-63
2024/01/20 05:07:54;;;;;;;;;;;;;;;16.64;62.05;99014.66;2085269;28;19940;-63
2024/01/20 05:08:55;;;;;;;;;;;;;;;16.64;62.37;99024.56;2087399;28;19929;-63
2024/01/20 05:09:56;;;;;;;;;;;;;;;16.63;62.35;99017.50;2088059;28;20554;-63
2024/01/20 05:10:58;;;;;;;;;;;;;;;16.61;62.34;99007.00;2086689;28;19940;-64
2024/01/20 05:12:00;;;;;;;;;;;;;;;16.64;62.21;99008.47;2086212;28;20035;-64
2024/01/20 05:13:03;;;;;;;;;;;;;;;16.63;62.29;99007.66;2087507;28;19929;-63
2024/01/20 05:14:05;;;;;;;;;;;;;;;16.65;62.23;99012.81;2087883;28;20712;-63
2024/01/20 05:15:10;;;;;;;;;;;;;;;16.65;62.00;99016.31;2089428;28;19929;-62
2024/01/20 05:16:12;;;;;;;;;;;;;;;16.64;62.21;99022.69;2087284;28;20411;-63
2024/01/20 05:17:12;;;;;;;;;;;;;;;16.63;62.25;99012.16;2087870;28;19928;-64
2024/01/20 05:18:14;;;;;;;;;;;;;;;16.66;62.05;99011.78;2083777;28;20376;-64
2024/01/20 05:19:15;;;;;;;;;;;;;;;16.67;61.97;99008.13;2089850;28;19928;-64